EmailTwitter


Observations de surface / Québec / LFBO

Régions: Québec | Canada | États-Unis | Europe | France | UK | Elsewhere
Station
Affichage
Infos & localisation pour LFBO | Aide pour décoder les METARs

Observations prises le 2017-05-26 à 01H30 UTC à TOULOUSE/BLAGNAC, FR (LFBO)

Température: 19.0 Celsius

Point de rosée: 11.0 Celsius

Humidité relative: 60%

Vents: Sud-sud-est à 9 km/h ou 5 noeuds.

Pression au niveau moyen de la mer: 101.30 kilopascals.

Observation METAR:

LFBO 260130Z AUTO 16005KT CAVOK 19/11 Q1013 NOSIG=